ESTA

Details ICAO ESTA (AGH)
Name Angelholm
Region Sweden
Timezone Europe/Stockholm (UTC+1.0)
Plans Departing 18
Arriving 27
Stats Elevation 68 ft / 21 m (AMSL)
Location 56.291492° 12.854977°
Runways 1
Magnetic Variation 3.838° E
Sunrise 2017-12-14 07:36:19 UTC / 2017-12-14 08:36:19 Local
Sunset 2017-12-14 14:32:58 UTC / 2017-12-14 15:32:58 Local
Advertisement - Login to hide

Runways

ID Width Length Bearing (true) Bearing (mag) Surface Threshold Offset Overrun Length
14 148 ft / 45 m 6,339 ft / 1,932 m 136.36° 132.52° Asphalt 0 ft / 0 m 0 ft / 0 m
32 148 ft / 45 m 6,339 ft / 1,932 m 316.38° 312.54° Asphalt 0 ft / 0 m 0 ft / 0 m

Approach Navaids

Runway Type Ident Frequency Range Bearing (true) Bearing (mag) Slope Elevation
14 Localiser DB 111.30 MHz 18 nm / 33 km 136.40° 132.56° - 38 ft / 12 m (AMSL)
14 Glidescope DB 111.30 MHz 10 nm / 19 km 136.37° 132.53° 3.00° 68 ft / 21 m (AMSL)

Map

Weather


0- 5 10 15 20 25 30 35+ Temperature / ° C

Clouds and Precipitation
Forecast for 2017-12-14 06:00 UTC. Updated an hour ago

Ground ~20,000 ft ~40,000 ft Winds

METAR

ESTA 140620Z 12010KT 8000 -RA OVC008 02/01 Q0978

TAF

Not found

Frequencies

Tower 127.10 MHz TWR
Departure 124.85 MHz SWEDEN
Approach 132.45 MHz TWR
Warning: Do not use this data for real-world aviation or navigation. No guarantee of current accuracy is given.